Time;durP1;ratioP1;P1;durP2;ratioP2;P2;SDS_P1;SDS_P2;PMS_P1;PMS_P2;Temp;Humidity;BMP_temperature;BMP_pressure;BME280_temperature;BME280_humidity;BME280_pressure;Samples;Min_cycle;Max_cycle;Signal;HPM_P1;HPM_P2
2023/09/03 04:01:16;;;;;;;3.47;3.30;;;15.40;97.30;;;;;;5742536;23;20640;-87
2023/09/03 04:03:42;;;;;;;5.40;4.33;;;15.40;97.30;;;;;;4990039;28;20459;-87
2023/09/03 04:06:07;;;;;;;6.43;2.90;;;15.30;97.30;;;;;;4989370;28;20958;-87
2023/09/03 04:08:35;;;;;;;5.80;3.07;;;15.30;97.30;;;;;;4989857;28;20463;-87
2023/09/03 04:11:07;;;;;;;4.33;3.20;;;15.30;97.30;;;;;;4983880;28;20668;-85
2023/09/03 04:13:33;;;;;;;3.37;2.20;;;15.30;97.30;;;;;;4971187;28;20441;-87
2023/09/03 04:15:59;;;;;;;2.70;2.37;;;15.30;97.30;;;;;;4970521;28;20915;-87
2023/09/03 04:18:27;;;;;;;2.73;1.70;;;15.30;97.30;;;;;;4970709;28;20426;-87
2023/09/03 04:20:58;;;;;;;6.93;3.37;;;15.30;97.30;;;;;;4970246;28;20440;-87
2023/09/03 04:23:24;;;;;;;3.40;3.20;;;15.30;97.30;;;;;;4970535;28;20422;-87
2023/09/03 04:25:54;;;;;;;3.73;3.60;;;15.30;97.30;;;;;;4970436;28;20500;-87
2023/09/03 04:28:20;;;;;;;5.17;3.00;;;15.30;97.30;;;;;;4971868;28;20553;-87
2023/09/03 04:30:45;;;;;;;4.30;2.70;;;15.30;97.30;;;;;;4970142;28;20453;-87
2023/09/03 04:33:11;;;;;;;5.27;3.20;;;15.30;97.30;;;;;;4970261;28;20978;-87
2023/09/03 04:35:37;;;;;;;4.30;3.20;;;15.30;97.30;;;;;;4971420;28;20175;-88
2023/09/03 04:38:04;;;;;;;5.07;3.80;;;15.30;97.30;;;;;;4973929;28;20181;-86
2023/09/03 04:40:36;;;;;;;3.80;3.10;;;15.30;97.30;;;;;;4975152;28;20424;-87
2023/09/03 04:43:02;;;;;;;2.43;2.23;;;15.30;97.30;;;;;;4974225;28;20960;-87
2023/09/03 04:45:28;;;;;;;10.27;3.47;;;15.30;97.30;;;;;;4965763;28;20428;-87
2023/09/03 04:47:58;;;;;;;8.63;3.77;;;15.30;97.30;;;;;;4973868;28;20548;-87
2023/09/03 04:50:25;;;;;;;3.60;2.37;;;15.30;97.30;;;;;;4973572;28;20216;-88
2023/09/03 04:52:53;;;;;;;5.80;5.50;;;15.30;97.30;;;;;;4973655;28;20437;-87
2023/09/03 04:55:19;;;;;;;6.17;4.10;;;15.40;97.30;;;;;;4973402;28;20414;-87
2023/09/03 04:57:44;;;;;;;3.57;3.10;;;15.40;97.30;;;;;;4973616;28;20472;-87
2023/09/03 05:00:11;;;;;;;6.93;4.20;;;15.40;97.30;;;;;;4974866;28;20209;-87
2023/09/03 05:02:36;;;;;;;3.90;3.73;;;15.50;97.30;;;;;;4974402;28;20304;-87
2023/09/03 05:05:02;;;;;;;11.37;3.20;;;15.50;97.30;;;;;;4973916;28;20476;-87
2023/09/03 05:07:28;;;;;;;6.20;3.90;;;15.50;97.30;;;;;;4973108;28;20759;-87
2023/09/03 05:09:55;;;;;;;9.63;3.63;;;15.50;97.30;;;;;;4973577;28;20508;-87
2023/09/03 05:12:21;;;;;;;5.50;3.17;;;15.60;97.30;;;;;;4973050;28;20523;-88
2023/09/03 05:14:46;;;;;;;5.50;3.33;;;15.60;97.30;;;;;;4973572;28;20584;-87
2023/09/03 05:17:12;;;;;;;4.90;4.60;;;15.60;97.30;;;;;;4972062;28;20425;-87
2023/09/03 05:19:39;;;;;;;4.90;3.80;;;15.60;97.30;;;;;;4971990;28;20185;-87
2023/09/03 05:22:05;;;;;;;5.13;3.17;;;15.60;97.30;;;;;;4972614;28;20708;-87
2023/09/03 05:24:31;;;;;;;6.13;5.10;;;15.60;97.30;;;;;;4973915;28;20760;-87
2023/09/03 05:26:56;;;;;;;5.90;4.43;;;15.60;97.30;;;;;;4972993;28;20436;-87
2023/09/03 05:29:22;;;;;;;4.60;4.03;;;15.60;97.30;;;;;;4973145;28;20225;-88
2023/09/03 05:31:47;;;;;;;6.63;3.40;;;15.70;97.30;;;;;;4972891;28;20220;-87
2023/09/03 05:34:13;;;;;;;6.20;4.10;;;15.60;97.30;;;;;;4973010;28;20274;-88
2023/09/03 05:36:39;;;;;;;4.10;2.90;;;15.70;97.30;;;;;;4972942;28;20174;-87
2023/09/03 05:39:04;;;;;;;5.77;3.23;;;15.60;97.30;;;;;;4973018;28;20612;-87
2023/09/03 05:41:31;;;;;;;5.27;4.17;;;15.60;97.30;;;;;;4972572;28;20203;-86
2023/09/03 05:43:57;;;;;;;2.60;1.87;;;15.60;97.30;;;;;;4973002;28;20182;-87
2023/09/03 05:46:23;;;;;;;3.50;3.30;;;15.60;97.30;;;;;;4972326;28;20422;-87
2023/09/03 05:48:50;;;;;;;13.50;4.67;;;15.60;97.30;;;;;;4971952;28;20445;-87
2023/09/03 05:51:16;;;;;;;10.70;3.30;;;15.70;97.30;;;;;;4975678;28;20524;-87
2023/09/03 05:53:42;;;;;;;3.17;2.40;;;15.70;97.30;;;;;;4972736;28;20517;-87
2023/09/03 05:56:09;;;;;;;6.00;2.87;;;15.70;97.30;;;;;;4972673;28;20261;-88
2023/09/03 05:58:35;;;;;;;5.47;2.93;;;15.70;97.30;;;;;;4972919;28;20229;-88
2023/09/03 06:01:04;;;;;;;3.73;2.67;;;15.70;97.30;;;;;;4972557;28;20881;-87
2023/09/03 06:03:30;;;;;;;5.63;4.30;;;15.70;97.30;;;;;;4972518;28;20429;-86
2023/09/03 06:05:56;;;;;;;1.90;1.83;;;15.70;97.30;;;;;;4972773;28;20418;-88
2023/09/03 06:08:21;;;;;;;2.93;2.60;;;15.70;97.30;;;;;;4972468;28;20290;-87
2023/09/03 06:10:47;;;;;;;2.93;2.10;;;15.70;97.30;;;;;;4972622;28;20616;-87
2023/09/03 06:13:12;;;;;;;6.07;3.90;;;15.80;97.30;;;;;;4972878;28;20417;-88
2023/09/03 06:15:38;;;;;;;4.87;2.63;;;15.70;97.30;;;;;;4972933;28;20221;-87
2023/09/03 06:18:03;;;;;;;3.93;1.93;;;15.80;97.30;;;;;;4974245;28;20190;-88
2023/09/03 06:20:29;;;;;;;3.03;2.50;;;15.80;97.30;;;;;;4972155;28;20186;-87
2023/09/03 06:22:55;;;;;;;27.20;3.27;;;15.80;97.30;;;;;;4972384;28;20174;-87
2023/09/03 06:25:20;;;;;;;6.63;3.90;;;15.80;97.30;;;;;;4972348;28;20674;-87
2023/09/03 06:27:46;;;;;;;4.53;3.10;;;15.90;97.30;;;;;;4971967;28;20189;-87
2023/09/03 06:30:11;;;;;;;5.73;4.83;;;15.90;97.30;;;;;;4972052;28;20185;-87
2023/09/03 06:32:37;;;;;;;3.47;1.90;;;15.90;97.30;;;;;;4972167;28;20292;-87
2023/09/03 06:35:04;;;;;;;5.43;3.63;;;15.90;97.30;;;;;;4971942;28;20178;-87
2023/09/03 06:37:30;;;;;;;5.70;2.37;;;15.90;97.30;;;;;;4971676;28;20195;-87
2023/09/03 06:39:55;;;;;;;3.40;1.87;;;15.90;97.30;;;;;;4983232;28;20440;-87
2023/09/03 06:42:21;;;;;;;2.40;2.20;;;15.90;97.30;;;;;;4976276;28;20206;-87
2023/09/03 06:44:46;;;;;;;2.80;2.60;;;15.90;97.30;;;;;;4979130;28;20192;-87
2023/09/03 06:47:12;;;;;;;4.70;2.87;;;15.90;97.30;;;;;;4971177;28;20718;-85
2023/09/03 06:49:37;;;;;;;3.67;3.03;;;16.00;97.30;;;;;;4974573;28;20186;-86
2023/09/03 06:52:03;;;;;;;3.03;2.17;;;16.00;97.30;;;;;;4976061;28;20199;-87
2023/09/03 06:54:29;;;;;;;4.90;2.40;;;16.00;97.30;;;;;;4979534;28;20213;-86
2023/09/03 06:56:54;;;;;;;5.50;2.33;;;16.00;97.30;;;;;;4977338;28;20655;-87
2023/09/03 06:59:23;;;;;;;4.27;2.30;;;16.00;97.30;;;;;;4989434;28;20277;-87
2023/09/03 07:01:49;;;;;;;4.37;3.00;;;16.10;97.30;;;;;;4984015;28;20240;-87
2023/09/03 07:04:15;;;;;;;2.07;1.93;;;16.10;97.30;;;;;;4973969;28;20433;-86
2023/09/03 07:06:41;;;;;;;2.30;2.10;;;16.10;97.30;;;;;;4983093;28;20421;-87
2023/09/03 07:09:06;;;;;;;5.07;2.80;;;16.10;97.30;;;;;;4975234;28;20202;-87
2023/09/03 07:11:32;;;;;;;1.87;1.77;;;16.10;97.30;;;;;;4970951;28;20201;-86
2023/09/03 07:13:57;;;;;;;3.37;1.90;;;16.10;97.30;;;;;;4979014;28;20181;-87
2023/09/03 07:16:23;;;;;;;1.47;1.20;;;16.10;97.30;;;;;;4987238;28;20193;-86
2023/09/03 07:18:48;;;;;;;3.87;2.03;;;16.10;97.30;;;;;;4973160;28;20186;-87
2023/09/03 07:21:14;;;;;;;4.57;2.87;;;16.20;97.30;;;;;;4978862;28;20212;-87
2023/09/03 07:23:40;;;;;;;4.00;2.40;;;16.20;97.30;;;;;;4978851;28;20285;-87
2023/09/03 07:26:08;;;;;;;2.63;2.43;;;16.20;97.30;;;;;;4977761;28;20178;-86
2023/09/03 07:28:34;;;;;;;2.93;1.93;;;16.20;97.30;;;;;;4987415;28;20221;-88
2023/09/03 07:30:59;;;;;;;8.17;2.60;;;16.30;97.30;;;;;;4970823;28;20452;-87
2023/09/03 07:33:25;;;;;;;5.60;3.00;;;16.30;97.30;;;;;;4978706;28;20499;-87
2023/09/03 07:35:51;;;;;;;4.93;3.20;;;16.30;97.30;;;;;;4983535;28;20197;-87
2023/09/03 07:38:16;;;;;;;6.27;2.60;;;16.30;97.30;;;;;;4974201;28;20309;-85
2023/09/03 07:40:42;;;;;;;2.30;1.77;;;16.40;97.30;;;;;;4986615;28;20209;-87
2023/09/03 07:43:08;;;;;;;3.23;1.50;;;16.50;97.30;;;;;;4977956;28;20182;-87
2023/09/03 07:45:34;;;;;;;5.47;2.00;;;16.50;97.30;;;;;;4981770;28;20269;-87
2023/09/03 07:47:59;;;;;;;3.30;1.97;;;16.60;97.30;;;;;;4981933;28;20602;-87
2023/09/03 07:50:27;;;;;;;3.73;3.23;;;16.60;97.30;;;;;;4974196;28;20377;-87
2023/09/03 07:52:53;;;;;;;1.33;1.30;;;16.60;97.30;;;;;;4982283;28;20534;-87
2023/09/03 07:55:19;;;;;;;1.83;1.73;;;16.70;97.30;;;;;;4982681;28;20552;-87
2023/09/03 07:57:44;;;;;;;5.83;2.10;;;16.80;97.30;;;;;;4986690;28;20224;-87
2023/09/03 08:00:10;;;;;;;4.30;2.83;;;16.80;97.30;;;;;;4972643;28;20178;-87
2023/09/03 08:02:36;;;;;;;2.60;2.43;;;16.90;97.30;;;;;;4972965;28;20270;-87
2023/09/03 08:05:01;;;;;;;3.23;2.17;;;16.90;97.30;;;;;;4980577;28;20459;-87
2023/09/03 08:07:27;;;;;;;2.63;1.73;;;17.00;97.30;;;;;;4972360;28;20183;-87
2023/09/03 08:09:52;;;;;;;3.00;2.00;;;17.00;97.30;;;;;;4974120;28;20199;-87
2023/09/03 08:12:18;;;;;;;1.73;1.67;;;17.10;97.30;;;;;;4998028;28;20198;-88
2023/09/03 08:14:46;;;;;;;2.93;2.60;;;17.10;97.30;;;;;;4997697;28;20209;-89
2023/09/03 08:17:11;;;;;;;1.70;1.60;;;17.20;97.30;;;;;;4995269;28;20174;-87
2023/09/03 08:19:37;;;;;;;3.40;1.93;;;17.30;97.30;;;;;;4974289;28;20920;-87
2023/09/03 08:22:03;;;;;;;1.30;1.20;;;17.30;97.30;;;;;;4974669;28;20202;-87
2023/09/03 08:24:28;;;;;;;2.83;2.03;;;17.40;97.30;;;;;;4974342;28;20216;-87
2023/09/03 08:26:54;;;;;;;3.50;2.10;;;17.40;97.30;;;;;;4976404;28;20178;-87
2023/09/03 08:29:19;;;;;;;2.90;2.33;;;17.50;97.30;;;;;;4973846;28;20210;-85
2023/09/03 08:31:45;;;;;;;1.53;1.43;;;17.60;97.30;;;;;;4975827;28;20210;-87
2023/09/03 08:34:10;;;;;;;3.90;2.47;;;17.70;97.30;;;;;;4982683;28;20178;-87
2023/09/03 08:36:36;;;;;;;3.53;2.67;;;17.80;97.30;;;;;;4982305;28;20218;-86
2023/09/03 08:39:02;;;;;;;2.37;2.20;;;17.80;97.30;;;;;;4982134;28;20187;-87
2023/09/03 08:41:28;;;;;;;1.77;1.47;;;17.90;97.30;;;;;;4982067;28;20209;-87
2023/09/03 08:43:58;;;;;;;1.37;1.27;;;17.90;97.30;;;;;;4987067;28;20425;-87
2023/09/03 08:46:32;;;;;;;1.70;1.20;;;18.00;97.30;;;;;;4985450;28;20939;-87
2023/09/03 08:48:59;;;;;;;3.37;1.70;;;18.10;97.30;;;;;;4985754;28;20468;-86
2023/09/03 08:51:26;;;;;;;2.57;2.37;;;18.20;97.30;;;;;;4985465;28;20445;-86
2023/09/03 08:53:54;;;;;;;3.17;2.03;;;18.20;97.30;;;;;;4985211;28;20456;-87
2023/09/03 08:56:20;;;;;;;1.33;1.23;;;18.30;97.30;;;;;;4985330;28;20414;-87
2023/09/03 08:58:45;;;;;;;2.17;1.20;;;18.30;97.30;;;;;;4981412;28;20972;-87
2023/09/03 09:01:13;;;;;;;3.87;1.60;;;18.30;97.30;;;;;;4981832;28;20328;-87
2023/09/03 09:03:39;;;;;;;6.20;1.60;;;18.30;97.30;;;;;;4989615;28;20389;-86
2023/09/03 09:06:07;;;;;;;1.30;1.20;;;18.40;97.30;;;;;;4988003;28;20516;-86
2023/09/03 09:08:33;;;;;;;5.63;1.70;;;18.40;97.30;;;;;;4984018;28;20198;-87
2023/09/03 09:11:04;;;;;;;1.93;1.43;;;18.50;97.30;;;;;;4981738;28;20493;-86
2023/09/03 09:13:34;;;;;;;3.10;2.20;;;18.50;97.30;;;;;;4972722;28;20982;-87
2023/09/03 09:16:00;;;;;;;2.23;1.20;;;18.60;97.30;;;;;;4974000;28;20510;-86
2023/09/03 09:18:25;;;;;;;1.87;1.80;;;18.60;97.30;;;;;;4981536;28;20866;-88
2023/09/03 09:20:55;;;;;;;1.63;1.53;;;18.70;97.30;;;;;;4978765;28;20229;-86
2023/09/03 09:23:22;;;;;;;2.50;2.30;;;18.70;97.30;;;;;;4976932;28;20190;-86
2023/09/03 09:25:48;;;;;;;1.43;1.33;;;18.80;97.30;;;;;;4977324;28;20444;-87
2023/09/03 09:28:14;;;;;;;1.70;1.60;;;18.80;97.30;;;;;;4984283;28;20550;-85
2023/09/03 09:30:53;;;;;;;1.33;1.20;;;18.90;97.30;;;;;;4981857;28;20699;-87
2023/09/03 09:33:19;;;;;;;1.00;0.90;;;18.90;97.30;;;;;;4984106;28;20422;-87
2023/09/03 09:35:45;;;;;;;3.13;1.50;;;18.90;97.30;;;;;;4983986;28;20450;-87
2023/09/03 09:38:10;;;;;;;1.03;0.93;;;19.00;97.30;;;;;;4992894;28;20442;-87
2023/09/03 09:40:36;;;;;;;1.10;0.90;;;19.00;97.30;;;;;;4992605;28;20225;-89
2023/09/03 09:43:06;;;;;;;1.00;0.90;;;19.00;97.30;;;;;;4997388;28;20177;-87
2023/09/03 09:45:32;;;;;;;0.90;0.90;;;19.00;97.30;;;;;;4985910;28;20457;-86
2023/09/03 09:48:08;;;;;;;1.00;0.90;;;19.00;97.30;;;;;;4983306;28;20470;-87
2023/09/03 09:50:36;;;;;;;1.17;1.10;;;19.10;97.30;;;;;;4982786;28;20449;-88
2023/09/03 09:53:03;;;;;;;1.20;1.00;;;19.10;97.30;;;;;;4983938;28;20414;-88
2023/09/03 09:55:31;;;;;;;0.90;0.80;;;19.20;97.30;;;;;;4990040;28;20401;-87
2023/09/03 09:58:00;;;;;;;1.13;1.03;;;19.20;97.30;;;;;;4970922;28;20418;-87
2023/09/03 10:00:37;;;;;;;1.27;1.27;;;19.20;97.30;;;;;;4978797;28;20512;-85
2023/09/03 10:03:05;;;;;;;1.37;0.97;;;19.30;97.30;;;;;;4964729;28;20997;-87
2023/09/03 10:05:31;;;;;;;0.80;0.80;;;19.30;97.30;;;;;;4979779;28;20424;-87
2023/09/03 10:07:58;;;;;;;1.43;1.13;;;19.30;97.30;;;;;;4982566;28;20543;-87
2023/09/03 10:10:24;;;;;;;1.20;1.10;;;19.40;97.30;;;;;;4975091;28;20186;-87
2023/09/03 10:12:49;;;;;;;1.83;1.00;;;19.50;97.30;;;;;;4972570;28;20437;-86
2023/09/03 10:15:15;;;;;;;1.07;0.90;;;19.60;97.30;;;;;;4977442;28;20217;-85
2023/09/03 10:17:46;;;;;;;0.90;0.80;;;19.60;97.30;;;;;;4977830;28;20175;-86
2023/09/03 10:20:16;;;;;;;1.47;1.10;;;19.60;97.30;;;;;;4971436;28;20174;-87
2023/09/03 10:22:44;;;;;;;1.90;1.17;;;19.60;97.30;;;;;;4970650;28;20438;-86
2023/09/03 10:25:16;;;;;;;1.00;1.00;;;19.60;97.20;;;;;;4975036;28;20426;-87
2023/09/03 10:27:48;;;;;;;0.90;0.90;;;19.60;97.30;;;;;;4997523;23;21004;-69
2023/09/03 10:30:18;;;;;;;0.93;0.83;;;19.60;97.30;;;;;;4992195;28;20882;-70
2023/09/03 10:32:44;;;;;;;2.87;1.50;;;19.60;97.30;;;;;;4974105;28;20434;-71
2023/09/03 10:35:11;;;;;;;1.20;1.20;;;19.70;97.30;;;;;;4971235;28;20516;-72
2023/09/03 10:37:38;;;;;;;1.70;1.10;;;19.70;96.40;;;;;;4965982;28;20441;-69
2023/09/03 10:40:23;;;;;;;1.43;1.17;;;19.70;96.50;;;;;;4965148;28;20433;-70
2023/09/03 10:42:51;;;;;;;1.00;0.90;;;19.80;97.30;;;;;;4962655;28;20763;-71
2023/09/03 10:45:18;;;;;;;1.43;1.33;;;19.80;96.90;;;;;;4970468;28;20449;-71
2023/09/03 10:48:02;;;;;;;1.37;1.20;;;19.80;97.30;;;;;;4970603;28;20428;-67
2023/09/03 10:50:45;;;;;;;1.27;1.17;;;19.80;96.70;;;;;;4965096;28;20537;-71
2023/09/03 10:53:33;;;;;;;0.90;0.87;;;19.80;96.00;;;;;;4968457;28;20417;-72
2023/09/03 10:56:14;;;;;;;0.97;0.90;;;19.80;95.70;;;;;;4959446;28;20422;-71
2023/09/03 10:58:59;;;;;;;1.67;1.57;;;19.90;95.80;;;;;;4968604;28;20460;-66
2023/09/03 11:01:32;;;;;;;1.30;1.20;;;20.00;96.20;;;;;;4967062;28;20855;-69
2023/09/03 11:04:03;;;;;;;0.90;0.80;;;20.00;95.80;;;;;;4967431;28;20467;-72
2023/09/03 11:06:34;;;;;;;1.03;1.00;;;20.10;94.90;;;;;;4969074;28;20950;-73
2023/09/03 11:08:59;;;;;;;0.90;0.87;;;20.10;94.30;;;;;;4962173;28;20666;-74
2023/09/03 11:11:28;;;;;;;0.90;0.80;;;20.10;94.90;;;;;;4969136;28;20446;-74
2023/09/03 11:13:55;;;;;;;1.00;0.90;;;20.10;94.90;;;;;;4970211;28;20185;-74
2023/09/03 11:16:30;;;;;;;0.90;0.80;;;20.10;94.70;;;;;;4970245;28;20418;-73
2023/09/03 11:18:56;;;;;;;2.20;1.97;;;20.10;95.00;;;;;;4970090;28;21012;-71
2023/09/03 11:21:25;;;;;;;1.50;1.23;;;20.10;95.10;;;;;;4970602;28;20449;-73
2023/09/03 11:24:20;;;;;;;0.77;0.73;;;20.20;95.50;;;;;;4968719;28;20225;-73
2023/09/03 11:27:02;;;;;;;0.90;0.80;;;20.20;94.50;;;;;;4963873;28;20477;-73
2023/09/03 11:29:28;;;;;;;1.20;1.00;;;20.20;93.90;;;;;;4968811;28;20514;-70
2023/09/03 11:31:54;;;;;;;2.03;1.37;;;20.20;93.60;;;;;;4968173;28;20481;-71
2023/09/03 11:34:24;;;;;;;1.17;1.10;;;20.30;93.80;;;;;;4968830;28;20170;-71
2023/09/03 11:36:49;;;;;;;1.10;0.90;;;20.40;93.60;;;;;;4968956;28;20193;-71
2023/09/03 11:39:16;;;;;;;1.23;1.03;;;20.50;93.80;;;;;;4969653;28;20413;-68
2023/09/03 11:41:46;;;;;;;5.27;1.10;;;20.50;94.20;;;;;;4968405;28;20337;-72
2023/09/03 11:44:21;;;;;;;2.97;1.50;;;20.70;93.40;;;;;;4968835;28;20512;-69
2023/09/03 11:46:57;;;;;;;1.20;1.10;;;20.70;93.40;;;;;;4968017;28;20596;-70
2023/09/03 11:49:23;;;;;;;0.97;0.93;;;20.70;92.90;;;;;;4968963;28;20512;-72
2023/09/03 11:51:48;;;;;;;1.77;1.30;;;20.70;92.80;;;;;;4968694;28;20485;-73
2023/09/03 11:54:24;;;;;;;1.00;0.90;;;20.70;92.70;;;;;;4968891;28;20178;-72
2023/09/03 11:56:50;;;;;;;1.50;1.47;;;20.70;93.10;;;;;;4968715;28;20181;-73
2023/09/03 11:59:16;;;;;;;1.30;0.90;;;20.70;94.00;;;;;;4970054;28;20433;-72
2023/09/03 12:01:41;;;;;;;0.90;0.80;;;20.80;92.20;;;;;;4968426;28;20584;-70
2023/09/03 12:04:07;;;;;;;3.80;1.63;;;20.70;91.30;;;;;;4970176;28;20190;-70
2023/09/03 12:06:37;;;;;;;1.33;1.10;;;20.60;91.10;;;;;;4969855;28;20556;-71
2023/09/03 12:09:03;;;;;;;0.70;0.70;;;20.50;90.70;;;;;;4969501;28;20214;-71
2023/09/03 12:11:30;;;;;;;0.90;0.80;;;20.50;91.60;;;;;;4968259;28;20557;-67
2023/09/03 12:13:55;;;;;;;1.07;0.97;;;20.50;91.70;;;;;;4968204;28;20253;-70
2023/09/03 12:16:24;;;;;;;1.23;1.10;;;20.50;91.70;;;;;;4969757;28;20469;-71
2023/09/03 12:19:01;;;;;;;1.10;1.00;;;20.50;91.70;;;;;;4968259;28;20323;-69
2023/09/03 12:21:34;;;;;;;1.03;0.93;;;20.60;92.40;;;;;;4964985;28;20450;-69
2023/09/03 12:24:07;;;;;;;0.80;0.80;;;20.80;92.20;;;;;;4969409;28;20422;-70
2023/09/03 12:26:37;;;;;;;0.80;0.80;;;21.00;92.40;;;;;;4969324;28;20421;-72
2023/09/03 12:29:19;;;;;;;4.00;1.20;;;21.20;91.40;;;;;;4967698;28;20812;-70
2023/09/03 12:31:45;;;;;;;0.90;0.80;;;21.30;90.90;;;;;;4968154;28;20445;-66
2023/09/03 12:34:12;;;;;;;2.63;1.00;;;21.20;91.20;;;;;;4969802;28;20608;-71
2023/09/03 12:36:57;;;;;;;1.00;1.00;;;21.20;90.40;;;;;;4969546;28;20183;-71
2023/09/03 12:39:37;;;;;;;1.27;1.17;;;21.00;89.30;;;;;;4969397;28;20421;-72
2023/09/03 12:42:04;;;;;;;1.37;1.00;;;21.00;90.30;;;;;;4969498;28;20931;-70
2023/09/03 12:44:31;;;;;;;1.17;0.90;;;21.10;90.80;;;;;;4968007;28;20429;-73
2023/09/03 12:46:57;;;;;;;1.00;0.90;;;21.10;89.90;;;;;;4969222;28;20457;-73
2023/09/03 12:49:25;;;;;;;1.33;1.20;;;21.10;89.60;;;;;;4967031;28;20995;-74
2023/09/03 12:51:51;;;;;;;2.70;1.10;;;21.00;89.70;;;;;;4974707;28;20445;-73
2023/09/03 12:54:17;;;;;;;1.20;1.10;;;21.10;90.30;;;;;;4966088;28;20434;-74
2023/09/03 12:56:43;;;;;;;0.90;0.80;;;21.20;91.60;;;;;;4968882;28;20839;-72
2023/09/03 12:59:08;;;;;;;0.90;0.90;;;21.30;89.80;;;;;;4973300;28;20182;-73
2023/09/03 13:01:36;;;;;;;1.00;0.90;;;21.40;89.50;;;;;;4972167;28;20221;-73
2023/09/03 13:04:02;;;;;;;1.50;1.40;;;21.40;88.40;;;;;;4979160;28;20517;-72
2023/09/03 13:06:28;;;;;;;2.20;0.80;;;21.30;89.80;;;;;;4977110;28;20430;-71
2023/09/03 13:08:53;;;;;;;1.00;0.90;;;21.30;88.00;;;;;;4973696;28;20461;-71
2023/09/03 13:11:19;;;;;;;2.87;1.40;;;21.30;88.30;;;;;;4971481;28;20622;-74
2023/09/03 13:13:51;;;;;;;1.00;0.90;;;21.30;87.30;;;;;;4971174;28;20213;-73
2023/09/03 13:16:17;;;;;;;0.80;0.80;;;21.30;88.20;;;;;;4971441;28;20178;-71
2023/09/03 13:18:45;;;;;;;0.83;0.80;;;21.40;88.10;;;;;;4971961;28;20436;-74
2023/09/03 13:21:11;;;;;;;0.80;0.70;;;21.50;87.40;;;;;;4971255;28;20198;-74
2023/09/03 13:23:38;;;;;;;1.40;1.30;;;21.40;87.10;;;;;;4972533;28;20749;-73
2023/09/03 13:26:03;;;;;;;1.07;0.90;;;21.20;87.40;;;;;;4972338;28;20437;-68
2023/09/03 13:28:31;;;;;;;1.23;1.00;;;21.10;88.00;;;;;;4973124;28;20839;-72
2023/09/03 13:30:57;;;;;;;1.10;0.90;;;21.10;88.20;;;;;;4973129;28;20198;-71
2023/09/03 13:33:22;;;;;;;1.00;0.90;;;21.20;87.20;;;;;;4973556;28;20809;-71
2023/09/03 13:35:53;;;;;;;0.90;0.80;;;21.30;87.90;;;;;;4973267;28;20178;-72
2023/09/03 13:38:19;;;;;;;0.70;0.70;;;21.50;88.40;;;;;;4971290;28;20179;-71
2023/09/03 13:40:44;;;;;;;1.97;0.93;;;21.70;88.60;;;;;;4971832;28;20679;-71
2023/09/03 13:43:10;;;;;;;2.93;1.87;;;21.80;87.20;;;;;;4972501;28;20186;-70
2023/09/03 13:45:35;;;;;;;1.00;0.90;;;21.90;86.30;;;;;;4971526;28;20257;-72
2023/09/03 13:48:02;;;;;;;1.20;0.77;;;22.00;87.00;;;;;;4972215;28;20216;-71
2023/09/03 13:50:28;;;;;;;1.00;0.90;;;22.10;86.20;;;;;;4969013;28;20234;-72
2023/09/03 13:52:56;;;;;;;1.87;1.17;;;22.20;86.00;;;;;;4970603;28;20942;-71
2023/09/03 13:55:26;;;;;;;1.10;1.00;;;22.20;86.50;;;;;;4970499;28;20270;-72
2023/09/03 13:57:55;;;;;;;0.93;0.83;;;22.20;86.00;;;;;;4971898;28;20413;-71
2023/09/03 14:00:21;;;;;;;4.30;1.10;;;22.20;86.10;;;;;;4970592;28;20430;-71
2023/09/03 14:02:47;;;;;;;1.00;0.90;;;22.20;86.00;;;;;;4971637;28;20453;-71
2023/09/03 14:05:13;;;;;;;7.03;0.97;;;22.20;85.80;;;;;;4968121;28;20438;-69
2023/09/03 14:07:38;;;;;;;0.80;0.77;;;22.20;86.10;;;;;;4968504;28;20186;-70
2023/09/03 14:10:04;;;;;;;0.70;0.70;;;22.20;85.70;;;;;;4968847;28;20671;-71
2023/09/03 14:12:30;;;;;;;1.20;0.93;;;22.30;86.10;;;;;;4960867;28;20191;-71
2023/09/03 14:14:55;;;;;;;2.93;2.27;;;22.40;84.80;;;;;;4965839;28;20433;-66
2023/09/03 14:17:21;;;;;;;1.67;1.07;;;22.40;85.50;;;;;;4968891;28;20194;-71
2023/09/03 14:19:47;;;;;;;0.70;0.70;;;22.40;85.40;;;;;;4967337;28;20183;-70
2023/09/03 14:22:17;;;;;;;1.00;0.90;;;22.50;85.60;;;;;;4970936;28;20202;-71
2023/09/03 14:24:43;;;;;;;0.83;0.77;;;22.40;83.90;;;;;;4966963;28;20785;-72
2023/09/03 14:27:09;;;;;;;0.90;0.80;;;22.30;83.80;;;;;;4971380;28;20805;-72
2023/09/03 14:29:35;;;;;;;0.80;0.80;;;22.20;84.10;;;;;;4971290;28;21024;-72
2023/09/03 14:32:02;;;;;;;1.10;1.00;;;22.20;84.40;;;;;;4970971;28;20614;-71
2023/09/03 14:34:28;;;;;;;1.00;0.93;;;22.20;84.20;;;;;;4970059;28;20851;-72
2023/09/03 14:36:53;;;;;;;1.37;1.10;;;22.20;83.80;;;;;;4971174;28;20433;-72
2023/09/03 14:39:19;;;;;;;0.93;0.83;;;22.30;84.10;;;;;;4969758;28;20197;-71
2023/09/03 14:41:45;;;;;;;1.00;0.90;;;22.30;83.80;;;;;;4969781;28;20217;-71
2023/09/03 14:44:11;;;;;;;1.10;1.00;;;22.30;83.20;;;;;;4971090;28;20186;-71
2023/09/03 14:46:36;;;;;;;0.90;0.90;;;22.30;83.40;;;;;;4971141;28;20190;-73
2023/09/03 14:49:02;;;;;;;0.80;0.80;;;22.40;83.60;;;;;;4970971;28;20698;-71
2023/09/03 14:51:29;;;;;;;1.27;1.10;;;22.50;83.20;;;;;;4970449;28;20737;-71
2023/09/03 14:53:55;;;;;;;1.33;0.90;;;22.60;83.70;;;;;;4969618;28;20992;-70
2023/09/03 14:56:21;;;;;;;3.27;1.20;;;22.80;82.00;;;;;;4971294;28;20425;-74
2023/09/03 14:58:47;;;;;;;1.53;1.00;;;22.80;81.80;;;;;;4970032;28;20273;-72
2023/09/03 15:01:20;;;;;;;0.90;0.80;;;22.70;81.30;;;;;;4961473;28;20446;-71
2023/09/03 15:03:46;;;;;;;2.37;0.97;;;22.60;81.60;;;;;;4969744;28;20194;-71
2023/09/03 15:06:11;;;;;;;1.00;0.87;;;22.60;81.60;;;;;;4969438;28;20425;-71
2023/09/03 15:08:37;;;;;;;1.70;1.33;;;22.50;81.60;;;;;;4969572;28;20476;-72
2023/09/03 15:11:13;;;;;;;1.63;1.53;;;22.50;81.30;;;;;;4970527;28;20677;-71
2023/09/03 15:13:43;;;;;;;0.90;0.80;;;22.40;81.70;;;;;;4969377;28;20557;-72
2023/09/03 15:16:10;;;;;;;0.90;0.80;;;22.30;81.80;;;;;;4968966;28;20461;-71
2023/09/03 15:18:36;;;;;;;0.90;0.80;;;22.20;81.60;;;;;;4969002;28;20512;-72
2023/09/03 15:21:03;;;;;;;1.43;0.90;;;22.20;82.20;;;;;;4968955;28;20824;-71
2023/09/03 15:23:29;;;;;;;1.30;1.00;;;22.20;81.80;;;;;;4970525;28;20418;-71
2023/09/03 15:25:54;;;;;;;0.90;0.80;;;22.20;82.50;;;;;;4969204;28;20440;-70
2023/09/03 15:28:21;;;;;;;3.87;1.00;;;22.20;82.20;;;;;;4968916;28;20324;-71
2023/09/03 15:30:47;;;;;;;0.67;0.67;;;22.20;82.60;;;;;;4970205;28;20194;-70
2023/09/03 15:33:13;;;;;;;1.33;1.30;;;22.20;83.00;;;;;;4968951;28;20418;-71
2023/09/03 15:35:39;;;;;;;8.70;1.10;;;22.20;82.30;;;;;;4970188;28;20420;-72
2023/09/03 15:38:06;;;;;;;0.70;0.70;;;22.10;82.50;;;;;;4968670;28;20201;-72
2023/09/03 15:40:32;;;;;;;0.80;0.80;;;22.10;83.10;;;;;;4968647;28;20438;-71
2023/09/03 15:42:58;;;;;;;0.80;0.70;;;22.00;82.60;;;;;;4969951;28;20417;-71
2023/09/03 15:45:23;;;;;;;4.40;1.73;;;21.90;81.90;;;;;;4968595;28;20432;-71
2023/09/03 15:47:49;;;;;;;0.70;0.70;;;21.90;82.90;;;;;;4968836;28;20205;-71
2023/09/03 15:50:14;;;;;;;1.30;1.20;;;21.80;83.10;;;;;;4969653;28;20205;-72
2023/09/03 15:52:40;;;;;;;0.80;0.70;;;21.80;82.80;;;;;;4968654;28;20178;-72
2023/09/03 15:55:06;;;;;;;0.97;0.93;;;21.80;83.00;;;;;;4968814;28;20179;-72
2023/09/03 15:57:32;;;;;;;1.03;0.70;;;21.70;82.10;;;;;;4968845;28;20273;-72
2023/09/03 15:59:58;;;;;;;0.80;0.70;;;21.70;83.20;;;;;;4968701;28;20232;-74
2023/09/03 16:02:24;;;;;;;4.77;1.00;;;21.60;81.70;;;;;;4968255;28;20449;-72
2023/09/03 16:04:51;;;;;;;0.80;0.70;;;21.50;82.10;;;;;;4968565;28;20440;-72
2023/09/03 16:07:17;;;;;;;0.80;0.80;;;21.50;83.10;;;;;;4969776;28;20197;-72
2023/09/03 16:09:44;;;;;;;1.00;0.90;;;21.50;83.70;;;;;;4968513;28;20457;-73
2023/09/03 16:12:09;;;;;;;0.73;0.70;;;21.50;83.20;;;;;;4968041;28;20434;-72
2023/09/03 16:14:35;;;;;;;1.40;0.80;;;21.40;83.30;;;;;;4970101;28;20924;-72
2023/09/03 16:17:01;;;;;;;1.03;0.93;;;21.40;82.50;;;;;;4968421;28;20222;-72
2023/09/03 16:19:27;;;;;;;2.30;1.40;;;21.30;83.30;;;;;;4969787;28;20519;-69
2023/09/03 16:21:52;;;;;;;0.90;0.80;;;21.20;83.60;;;;;;4969557;28;20206;-71
2023/09/03 16:24:18;;;;;;;0.80;0.70;;;21.20;83.40;;;;;;4968199;28;20186;-72
2023/09/03 16:26:44;;;;;;;0.70;0.70;;;21.10;83.80;;;;;;4982906;23;20215;-87
2023/09/03 16:29:09;;;;;;;1.83;1.10;;;21.00;83.10;;;;;;4989504;28;20213;-87
2023/09/03 16:31:36;;;;;;;1.00;0.90;;;21.00;83.90;;;;;;4990552;28;20212;-87
2023/09/03 16:34:04;;;;;;;0.77;0.77;;;20.90;83.90;;;;;;4994333;28;20192;-87
2023/09/03 16:36:30;;;;;;;1.10;1.00;;;20.90;84.50;;;;;;4992309;28;20417;-87
2023/09/03 16:38:56;;;;;;;1.00;0.90;;;20.80;84.90;;;;;;4975748;28;20512;-87
2023/09/03 16:41:21;;;;;;;1.00;0.90;;;20.80;85.50;;;;;;4974414;28;20761;-88
2023/09/03 16:43:47;;;;;;;0.80;0.70;;;20.80;85.10;;;;;;4975218;28;20222;-87
2023/09/03 16:46:12;;;;;;;1.27;0.83;;;20.80;85.60;;;;;;4975083;28;20198;-87